createdAt,value
2023-04-02T00:00:46.112Z,0.50
2023-04-02T00:01:46.164Z,0.47
2023-04-02T00:02:46.153Z,0.43
2023-04-02T00:03:46.234Z,0.44
2023-04-02T00:04:46.140Z,0.50
2023-04-02T00:05:46.154Z,0.51
2023-04-02T00:06:46.120Z,0.57
2023-04-02T00:07:46.128Z,0.52
2023-04-02T00:08:46.122Z,0.56
2023-04-02T00:09:46.168Z,0.62
2023-04-02T00:10:46.138Z,0.72
2023-04-02T00:11:46.123Z,0.64
2023-04-02T00:12:46.146Z,0.45
2023-04-02T00:13:46.120Z,0.51
2023-04-02T00:14:46.172Z,0.50
2023-04-02T00:15:46.115Z,0.92
2023-04-02T00:16:46.244Z,1.29
2023-04-02T00:17:46.218Z,1.02
2023-04-02T00:18:46.139Z,0.75
2023-04-02T00:19:46.120Z,0.86
2023-04-02T00:20:46.120Z,0.89
2023-04-02T00:21:46.119Z,0.86
2023-04-02T00:22:47.268Z,0.78
2023-04-02T00:23:46.155Z,0.70
2023-04-02T00:24:46.126Z,0.68
2023-04-02T00:25:46.131Z,0.63
2023-04-02T00:26:46.118Z,0.74
2023-04-02T00:27:46.146Z,0.76
2023-04-02T00:28:46.165Z,0.60
2023-04-02T00:29:46.118Z,0.58
2023-04-02T00:30:46.117Z,0.52
2023-04-02T00:31:46.203Z,0.53
2023-04-02T00:32:47.320Z,0.50
2023-04-02T00:33:46.189Z,0.50
2023-04-02T00:34:46.117Z,0.53
2023-04-02T00:35:46.126Z,0.56
2023-04-02T00:36:46.127Z,0.51
2023-04-02T00:37:46.126Z,0.50
2023-04-02T00:38:47.552Z,0.48
2023-04-02T00:39:46.161Z,0.48
2023-04-02T00:40:46.128Z,0.50
2023-04-02T00:41:46.119Z,0.50
2023-04-02T00:42:46.141Z,0.54
2023-04-02T00:43:46.113Z,0.51
2023-04-02T00:44:46.146Z,0.52
2023-04-02T00:45:46.139Z,0.56
2023-04-02T00:46:46.114Z,0.62
2023-04-02T00:47:46.155Z,0.59
2023-04-02T00:48:46.115Z,0.63
2023-04-02T00:49:46.111Z,1.19
2023-04-02T00:50:46.121Z,1.37
2023-04-02T00:51:46.131Z,1.56
2023-04-02T00:52:46.146Z,1.19
2023-04-02T00:53:46.130Z,1.40
2023-04-02T00:54:46.137Z,1.00
2023-04-02T00:55:46.157Z,0.63
2023-04-02T00:56:46.182Z,0.47
2023-04-02T00:57:46.179Z,0.79
2023-04-02T00:58:46.162Z,0.92
2023-04-02T00:59:46.180Z,0.94
2023-04-02T01:00:46.203Z,1.11
2023-04-02T01:01:46.306Z,1.29
2023-04-02T01:02:46.253Z,1.35
2023-04-02T01:03:46.280Z,1.20
2023-04-02T01:04:46.216Z,0.91
2023-04-02T01:05:46.233Z,0.88
2023-04-02T01:06:46.311Z,0.92
2023-04-02T01:07:46.228Z,0.86
2023-04-02T01:08:46.248Z,0.89
2023-04-02T01:09:46.267Z,0.65
2023-04-02T01:10:46.246Z,0.68
2023-04-02T01:11:46.256Z,0.66
2023-04-02T01:12:46.286Z,0.65
2023-04-02T01:13:46.255Z,0.47
2023-04-02T01:14:46.263Z,0.72
2023-04-02T01:15:46.309Z,1.30
2023-04-02T01:16:46.335Z,1.55
2023-04-02T01:17:46.386Z,1.40
2023-04-02T01:18:46.384Z,0.97
2023-04-02T01:19:46.336Z,0.80
2023-04-02T01:20:46.354Z,0.72
2023-04-02T01:21:46.410Z,0.69
2023-04-02T01:22:46.491Z,0.60
2023-04-02T01:23:46.545Z,0.60
2023-04-02T01:24:46.619Z,0.56
2023-04-02T01:25:46.657Z,0.52
2023-04-02T01:26:46.698Z,0.53
2023-04-02T01:27:46.763Z,0.52
2023-04-02T01:28:46.807Z,0.76
2023-04-02T01:29:46.849Z,0.98
2023-04-02T01:30:46.908Z,1.05
2023-04-02T01:31:46.983Z,0.87
2023-04-02T01:32:47.108Z,0.77
2023-04-02T01:33:47.070Z,0.83
2023-04-02T01:34:47.170Z,0.54
2023-04-02T01:35:47.271Z,0.51
2023-04-02T01:36:47.297Z,0.66
2023-04-02T01:37:47.358Z,0.79
2023-04-02T01:38:47.403Z,0.97
2023-04-02T01:39:47.457Z,0.97
2023-04-02T01:40:47.522Z,0.96
2023-04-02T01:41:47.566Z,0.91
2023-04-02T01:42:47.622Z,0.79
2023-04-02T01:43:47.692Z,0.53
2023-04-02T01:44:47.747Z,0.43
2023-04-02T01:45:47.812Z,0.51
2023-04-02T01:46:47.916Z,0.53
2023-04-02T01:47:47.939Z,0.58
2023-04-02T01:48:47.969Z,0.96
2023-04-02T01:49:47.984Z,1.25
2023-04-02T01:50:48.037Z,1.32
2023-04-02T01:51:48.054Z,1.23
2023-04-02T01:52:48.082Z,1.21
2023-04-02T01:53:48.122Z,1.28
2023-04-02T01:54:48.160Z,1.43
2023-04-02T01:55:48.181Z,1.55
2023-04-02T01:56:48.216Z,1.52
2023-04-02T01:57:48.230Z,1.66
2023-04-02T01:58:48.304Z,2.11
2023-04-02T01:59:48.343Z,1.78
2023-04-02T02:00:48.393Z,1.70
2023-04-02T02:01:48.516Z,1.52
2023-04-02T02:02:48.584Z,1.30
2023-04-02T02:03:48.608Z,1.15
2023-04-02T02:04:48.683Z,1.15
2023-04-02T02:05:48.694Z,1.08
2023-04-02T02:06:48.729Z,1.04
2023-04-02T02:07:48.778Z,1.16
2023-04-02T02:08:48.878Z,1.29
2023-04-02T02:09:48.890Z,1.20
2023-04-02T02:10:48.936Z,1.17
2023-04-02T02:11:48.978Z,1.27
2023-04-02T02:12:49.023Z,1.31
2023-04-02T02:13:49.072Z,1.40
2023-04-02T02:14:49.108Z,1.54
2023-04-02T02:15:49.167Z,1.54
2023-04-02T02:16:49.308Z,1.59
2023-04-02T02:17:49.320Z,1.57
2023-04-02T02:18:49.367Z,1.67
2023-04-02T02:19:49.439Z,2.03
2023-04-02T02:20:49.485Z,2.13
2023-04-02T02:21:49.513Z,2.93
2023-04-02T02:22:49.623Z,4.61
2023-04-02T02:23:49.653Z,6.49
2023-04-02T02:24:49.708Z,8.64
2023-04-02T02:25:49.767Z,9.24
2023-04-02T02:26:49.815Z,9.62
2023-04-02T02:27:49.875Z,10.33
2023-04-02T02:28:49.933Z,11.85
2023-04-02T02:29:49.953Z,11.64
2023-04-02T02:30:50.002Z,11.21
2023-04-02T02:31:50.129Z,9.85
2023-04-02T02:32:50.108Z,8.48
2023-04-02T02:33:50.139Z,9.40
2023-04-02T02:34:50.182Z,10.55
2023-04-02T02:35:50.231Z,11.58
2023-04-02T02:36:50.277Z,9.68
2023-04-02T02:37:50.311Z,7.34
2023-04-02T02:38:50.390Z,8.05
2023-04-02T02:39:50.425Z,9.35
2023-04-02T02:40:50.525Z,9.31
2023-04-02T02:41:50.582Z,8.13
2023-04-02T02:42:50.672Z,8.85
2023-04-02T02:43:50.734Z,10.49
2023-04-02T02:44:50.812Z,11.62
2023-04-02T02:45:50.906Z,12.29
2023-04-02T02:46:50.909Z,14.25
2023-04-02T02:47:50.999Z,12.64
2023-04-02T02:48:51.047Z,10.74
2023-04-02T02:49:51.123Z,11.81
2023-04-02T02:50:51.190Z,12.80
2023-04-02T02:51:51.256Z,13.21
2023-04-02T02:52:51.357Z,14.75
2023-04-02T02:53:51.360Z,15.67
2023-04-02T02:54:51.412Z,15.54
2023-04-02T02:55:51.454Z,11.89
2023-04-02T02:56:51.524Z,7.78
2023-04-02T02:57:51.569Z,6.29
2023-04-02T02:58:51.605Z,5.47
2023-04-02T02:59:51.665Z,5.36
2023-04-02T03:00:51.722Z,6.18
2023-04-02T03:01:51.787Z,7.46
2023-04-02T03:02:51.996Z,8.81
2023-04-02T03:03:51.985Z,10.27
2023-04-02T03:04:51.928Z,12.68
2023-04-02T03:05:51.973Z,17.41
2023-04-02T03:06:52.016Z,20.83
2023-04-02T03:07:52.057Z,28.54
2023-04-02T03:08:52.143Z,35.29
2023-04-02T03:09:52.165Z,39.64
2023-04-02T03:10:52.233Z,38.90
2023-04-02T03:11:52.277Z,36.10
2023-04-02T03:12:52.342Z,30.99
2023-04-02T03:13:52.415Z,21.98
2023-04-02T03:14:52.483Z,20.43
2023-04-02T03:15:52.598Z,16.72
2023-04-02T03:16:52.620Z,14.92
2023-04-02T03:17:52.758Z,16.23
2023-04-02T03:18:52.755Z,15.82
2023-04-02T03:19:52.820Z,13.59
2023-04-02T03:20:52.891Z,14.94
2023-04-02T03:21:52.943Z,12.11
2023-04-02T03:22:53.001Z,12.71
2023-04-02T03:23:53.059Z,14.91
2023-04-02T03:24:53.147Z,12.47
2023-04-02T03:25:53.170Z,9.79
2023-04-02T03:26:53.243Z,7.99
2023-04-02T03:27:53.295Z,5.58
2023-04-02T03:28:53.359Z,5.33
2023-04-02T03:29:53.430Z,5.09
2023-04-02T03:30:53.539Z,4.89
2023-04-02T03:31:53.553Z,5.55
2023-04-02T03:32:53.645Z,5.29
2023-04-02T03:33:53.638Z,5.71
2023-04-02T03:34:53.685Z,7.81
2023-04-02T03:35:53.748Z,10.34
2023-04-02T03:36:53.769Z,9.76
2023-04-02T03:37:53.814Z,8.58
2023-04-02T03:38:53.860Z,8.74
2023-04-02T03:39:53.922Z,8.60
2023-04-02T03:40:54.022Z,8.48
2023-04-02T03:41:54.057Z,8.71
2023-04-02T03:42:54.135Z,9.77
2023-04-02T03:43:54.219Z,10.04
2023-04-02T03:44:54.298Z,10.63
2023-04-02T03:45:54.350Z,11.50
2023-04-02T03:46:54.448Z,13.36
2023-04-02T03:47:54.515Z,14.71
2023-04-02T03:48:54.569Z,17.61
2023-04-02T03:49:54.609Z,20.22
2023-04-02T03:50:54.692Z,22.87
2023-04-02T03:51:54.746Z,26.22
2023-04-02T03:52:54.778Z,29.28
2023-04-02T03:53:54.829Z,31.10
2023-04-02T03:54:54.862Z,28.56
2023-04-02T03:55:54.907Z,26.19
2023-04-02T03:56:55.056Z,24.69
2023-04-02T03:57:54.974Z,25.08
2023-04-02T03:58:55.002Z,23.96
2023-04-02T03:59:55.026Z,23.31
2023-04-02T04:00:55.045Z,21.78
2023-04-02T04:01:55.129Z,23.09
2023-04-02T04:02:55.160Z,21.06
2023-04-02T04:03:55.122Z,20.38
2023-04-02T04:04:55.138Z,22.50
2023-04-02T04:05:55.174Z,29.56
2023-04-02T04:06:55.192Z,36.40
2023-04-02T04:07:55.229Z,43.74
2023-04-02T04:08:55.269Z,48.17
2023-04-02T04:09:55.325Z,53.07
2023-04-02T04:10:55.378Z,62.00
2023-04-02T04:11:55.378Z,70.51
2023-04-02T04:12:55.429Z,78.18
2023-04-02T04:13:55.434Z,85.02
2023-04-02T04:14:55.496Z,93.69
2023-04-02T04:15:55.525Z,106.71
2023-04-02T04:16:55.699Z,134.49
2023-04-02T04:17:55.577Z,156.70
2023-04-02T04:18:55.577Z,136.35
2023-04-02T04:19:55.622Z,112.99
2023-04-02T04:20:55.671Z,104.94
2023-04-02T04:21:55.697Z,64.77
2023-04-02T04:22:55.921Z,53.27
2023-04-02T04:23:55.769Z,48.33
2023-04-02T04:24:55.811Z,38.78
2023-04-02T04:25:55.855Z,33.85
2023-04-02T04:26:55.874Z,31.66
2023-04-02T04:27:55.908Z,27.12
2023-04-02T04:28:55.958Z,23.01
2023-04-02T04:29:55.953Z,23.48
2023-04-02T04:30:55.981Z,20.10
2023-04-02T04:31:56.183Z,20.97
2023-04-02T04:32:56.062Z,23.21
2023-04-02T04:33:56.039Z,25.49
2023-04-02T04:34:56.055Z,24.26
2023-04-02T04:35:56.154Z,21.01
2023-04-02T04:36:56.109Z,21.50
2023-04-02T04:37:56.130Z,20.97
2023-04-02T04:38:56.153Z,19.49
2023-04-02T04:39:56.181Z,19.80
2023-04-02T04:40:56.203Z,18.81
2023-04-02T04:41:56.250Z,15.34
2023-04-02T04:42:56.280Z,13.92
2023-04-02T04:43:56.320Z,14.06
2023-04-02T04:44:56.372Z,14.39
2023-04-02T04:45:56.426Z,7.72
2023-04-02T04:46:56.418Z,6.62
2023-04-02T04:47:56.508Z,6.09
2023-04-02T04:48:56.454Z,4.64
2023-04-02T04:49:56.503Z,4.16
2023-04-02T04:50:56.522Z,4.42
2023-04-02T04:51:56.560Z,4.63
2023-04-02T04:52:56.754Z,4.47
2023-04-02T04:53:56.626Z,4.27
2023-04-02T04:54:56.658Z,5.27
2023-04-02T04:55:59.678Z,7.16
2023-04-02T04:56:56.718Z,7.22
2023-04-02T04:57:56.717Z,7.61
2023-04-02T04:58:56.724Z,8.79
2023-04-02T04:59:56.732Z,11.95
2023-04-02T05:00:56.760Z,16.25
2023-04-02T05:01:56.796Z,16.29
2023-04-02T05:02:56.773Z,17.29
2023-04-02T05:03:56.793Z,19.58
2023-04-02T05:04:56.878Z,19.68
2023-04-02T05:05:56.794Z,22.26
2023-04-02T05:06:56.823Z,29.84
2023-04-02T05:07:57.929Z,32.22
2023-04-02T05:08:56.861Z,31.95
2023-04-02T05:09:56.886Z,32.49
2023-04-02T05:10:56.905Z,30.27
2023-04-02T05:11:56.948Z,24.45
2023-04-02T05:12:56.953Z,28.60
2023-04-02T05:13:56.968Z,20.91
2023-04-02T05:14:57.017Z,9.85
2023-04-02T05:15:57.776Z,8.87
2023-04-02T05:16:57.076Z,5.11
2023-04-02T05:17:57.088Z,2.98
2023-04-02T05:18:57.094Z,1.91
2023-04-02T05:19:57.130Z,1.48
2023-04-02T05:20:57.124Z,1.44
2023-04-02T05:21:57.159Z,1.11
2023-04-02T05:22:57.177Z,1.21
2023-04-02T05:23:57.211Z,1.03
2023-04-02T05:24:57.253Z,0.77
2023-04-02T05:25:57.263Z,1.09
2023-04-02T05:26:57.299Z,0.88
2023-04-02T05:27:57.326Z,1.68
2023-04-02T05:28:57.387Z,3.12
2023-04-02T05:29:57.383Z,5.06
2023-04-02T05:30:56.487Z,6.58
2023-04-02T05:31:57.449Z,6.76
2023-04-02T05:32:57.623Z,7.02
2023-04-02T05:33:57.508Z,8.18
2023-04-02T05:34:57.528Z,7.14
2023-04-02T05:35:57.643Z,6.28
2023-04-02T05:36:57.582Z,5.81
2023-04-02T05:37:57.609Z,6.07
2023-04-02T05:38:57.647Z,5.62
2023-04-02T05:39:57.655Z,4.54
2023-04-02T05:40:57.668Z,3.95
2023-04-02T05:41:57.693Z,3.62
2023-04-02T05:42:57.712Z,3.63
2023-04-02T05:43:57.730Z,3.18
2023-04-02T05:44:57.738Z,3.58
2023-04-02T05:45:57.752Z,4.41
2023-04-02T05:46:57.810Z,5.63
2023-04-02T05:47:57.825Z,6.82
2023-04-02T05:48:57.828Z,7.97
2023-04-02T05:49:57.810Z,9.46
2023-04-02T05:50:57.826Z,15.06
2023-04-02T05:51:57.926Z,22.95
2023-04-02T05:52:57.864Z,33.06
2023-04-02T05:53:57.914Z,40.23
2023-04-02T05:54:57.946Z,49.66
2023-04-02T05:55:58.008Z,57.21
2023-04-02T05:56:58.038Z,60.84
2023-04-02T05:58:17.704Z,62.96
2023-04-02T05:58:58.317Z,63.03
2023-04-02T05:59:58.077Z,59.48
2023-04-02T06:00:58.087Z,59.74
2023-04-02T06:01:58.162Z,55.61
2023-04-02T06:02:58.182Z,59.41
2023-04-02T06:03:58.171Z,61.60
2023-04-02T06:04:58.149Z,66.37
2023-04-02T06:05:58.124Z,69.45
2023-04-02T06:06:58.127Z,71.98
2023-04-02T06:07:58.152Z,75.17
2023-04-02T06:08:58.149Z,74.61
2023-04-02T06:09:58.155Z,85.15
2023-04-02T06:10:58.176Z,97.38
2023-04-02T06:11:58.168Z,93.54
2023-04-02T06:12:58.175Z,91.96
2023-04-02T06:13:58.202Z,94.95
2023-04-02T06:14:58.203Z,95.06
2023-04-02T06:15:58.217Z,96.93
2023-04-02T06:16:58.279Z,90.29
2023-04-02T06:17:58.279Z,90.81
2023-04-02T06:18:58.258Z,90.14
2023-04-02T06:19:58.263Z,94.66
2023-04-02T06:20:58.319Z,96.26
2023-04-02T06:21:58.288Z,87.37
2023-04-02T06:22:58.291Z,87.34
2023-04-02T06:23:58.308Z,90.12
2023-04-02T06:24:58.312Z,92.18
2023-04-02T06:25:58.347Z,101.46
2023-04-02T06:26:58.409Z,98.58
2023-04-02T06:27:58.491Z,103.02
2023-04-02T06:28:58.537Z,95.69
2023-04-02T06:29:58.582Z,76.79
2023-04-02T06:30:58.694Z,66.50
2023-04-02T06:31:58.674Z,64.47
2023-04-02T06:32:58.757Z,51.60
2023-04-02T06:33:58.732Z,44.68
2023-04-02T06:34:58.771Z,45.82
2023-04-02T06:35:58.845Z,45.64
2023-04-02T06:36:58.823Z,39.99
2023-04-02T06:37:58.825Z,39.81
2023-04-02T06:38:58.841Z,38.88
2023-04-02T06:39:58.857Z,34.00
2023-04-02T06:40:59.176Z,35.21
2023-04-02T06:41:58.844Z,36.12
2023-04-02T06:42:58.864Z,39.39
2023-04-02T06:43:58.889Z,43.40
2023-04-02T06:44:58.848Z,46.99
2023-04-02T06:45:58.941Z,54.97
2023-04-02T06:46:58.847Z,60.21
2023-04-02T06:47:58.968Z,57.05
2023-04-02T06:48:58.838Z,63.06
2023-04-02T06:49:58.833Z,63.57
2023-04-02T06:50:58.835Z,57.87
2023-04-02T06:51:58.844Z,59.48
2023-04-02T06:52:58.924Z,60.16
2023-04-02T06:53:58.936Z,56.72
2023-04-02T06:54:58.980Z,52.87
2023-04-02T06:55:58.980Z,52.62
2023-04-02T06:56:59.081Z,54.36
2023-04-02T06:57:59.053Z,53.85
2023-04-02T06:58:59.104Z,51.52
2023-04-02T06:59:59.149Z,49.65
2023-04-02T07:00:59.200Z,42.96
2023-04-02T07:01:59.262Z,31.05
2023-04-02T07:02:59.319Z,20.32
2023-04-02T07:03:59.361Z,14.11
2023-04-02T07:04:59.426Z,12.35
2023-04-02T07:05:59.445Z,13.12
2023-04-02T07:06:59.476Z,12.96
2023-04-02T07:07:59.524Z,15.36
2023-04-02T07:08:59.583Z,14.18
2023-04-02T07:09:59.586Z,15.26
2023-04-02T07:10:59.609Z,17.01
2023-04-02T07:11:59.626Z,20.71
2023-04-02T07:12:59.644Z,16.57
2023-04-02T07:13:59.692Z,15.68
2023-04-02T07:14:59.709Z,15.75
2023-04-02T07:15:59.787Z,15.26
2023-04-02T07:16:59.760Z,11.39
2023-04-02T07:17:59.811Z,10.35
2023-04-02T07:18:59.802Z,9.05
2023-04-02T07:20:00.229Z,8.92
2023-04-02T07:20:59.857Z,6.97
2023-04-02T07:21:59.875Z,6.45
2023-04-02T07:22:59.912Z,5.35
2023-04-02T07:23:59.924Z,3.60
2023-04-02T07:25:00.023Z,3.23
2023-04-02T07:25:59.999Z,3.60
2023-04-02T07:27:00.031Z,3.50
2023-04-02T07:28:00.060Z,4.11
2023-04-02T07:29:00.031Z,3.96
2023-04-02T07:30:00.030Z,3.30
2023-04-02T07:31:00.005Z,2.94
2023-04-02T07:31:59.976Z,2.98
2023-04-02T07:32:59.984Z,3.08
2023-04-02T07:33:58.921Z,4.08
2023-04-02T07:34:59.942Z,2.71
2023-04-02T07:36:00.005Z,1.64
2023-04-02T07:37:00.009Z,1.28
2023-04-02T07:38:00.021Z,1.33
2023-04-02T07:39:00.040Z,0.67
2023-04-02T07:40:00.017Z,0.40
2023-04-02T07:41:00.105Z,0.39
2023-04-02T07:42:00.080Z,0.50
2023-04-02T07:43:00.074Z,0.54
2023-04-02T07:44:00.079Z,0.57
2023-04-02T07:45:00.144Z,0.49
2023-04-02T07:46:00.170Z,0.50
2023-04-02T07:47:00.303Z,0.59
2023-04-02T07:48:00.231Z,0.98
2023-04-02T07:49:00.188Z,1.16
2023-04-02T07:50:00.205Z,1.32
2023-04-02T07:51:00.208Z,1.68
2023-04-02T07:52:00.203Z,2.21
2023-04-02T07:53:00.175Z,2.74
2023-04-02T07:54:00.162Z,2.39
2023-04-02T07:55:00.157Z,2.17
2023-04-02T07:56:00.144Z,1.89
2023-04-02T07:57:00.210Z,1.29
2023-04-02T07:58:00.180Z,1.19
2023-04-02T07:59:00.156Z,0.99
2023-04-02T08:00:00.178Z,1.32
2023-04-02T08:01:00.162Z,0.71
2023-04-02T08:02:00.215Z,0.34
2023-04-02T08:03:00.201Z,0.34
2023-04-02T08:04:00.169Z,0.34
2023-04-02T08:05:00.073Z,0.34
2023-04-02T08:06:00.040Z,0.50
2023-04-02T08:06:59.986Z,1.02
2023-04-02T08:07:59.952Z,1.42
2023-04-02T08:08:59.870Z,1.63
2023-04-02T08:09:59.823Z,2.22
2023-04-02T08:10:59.802Z,1.89
2023-04-02T08:11:59.742Z,1.04
2023-04-02T08:12:59.715Z,0.73
2023-04-02T08:13:59.681Z,0.77
2023-04-02T08:15:00.028Z,0.34
2023-04-02T08:15:59.639Z,0.41
2023-04-02T08:16:59.729Z,0.55
2023-04-02T08:17:59.685Z,0.73
2023-04-02T08:18:59.668Z,0.80
2023-04-02T08:19:59.663Z,0.81
2023-04-02T08:20:59.694Z,0.72
2023-04-02T08:21:59.665Z,0.68
2023-04-02T08:22:59.680Z,0.81
2023-04-02T08:23:59.702Z,0.60
2023-04-02T08:24:59.668Z,0.57
2023-04-02T08:25:59.640Z,0.55
2023-04-02T08:26:59.618Z,0.66
2023-04-02T08:27:59.572Z,0.74
2023-04-02T08:28:59.566Z,0.67
2023-04-02T08:29:59.498Z,0.61
2023-04-02T08:30:59.527Z,0.50
2023-04-02T08:31:59.448Z,0.62
2023-04-02T08:32:59.468Z,0.73
2023-04-02T08:33:59.393Z,0.82
2023-04-02T08:35:00.452Z,0.66
2023-04-02T08:35:59.404Z,0.62
2023-04-02T08:36:59.312Z,0.47
2023-04-02T08:37:59.270Z,0.41
2023-04-02T08:38:59.256Z,0.35
2023-04-02T08:39:59.268Z,0.34
2023-04-02T08:40:59.282Z,0.34
2023-04-02T08:41:59.241Z,0.34
2023-04-02T08:42:59.192Z,0.46
2023-04-02T08:43:59.177Z,0.43
2023-04-02T08:44:59.228Z,0.68
2023-04-02T08:45:59.213Z,0.78
2023-04-02T08:46:59.189Z,0.40
2023-04-02T08:47:59.247Z,0.34
2023-04-02T08:48:59.169Z,0.44
2023-04-02T08:49:59.116Z,0.56
2023-04-02T08:50:59.072Z,0.38
2023-04-02T08:51:59.053Z,0.42
2023-04-02T08:52:59.019Z,0.48
2023-04-02T08:53:58.954Z,0.47
2023-04-02T08:54:58.914Z,0.44
2023-04-02T08:55:58.889Z,0.61
2023-04-02T08:56:58.858Z,0.79
2023-04-02T08:57:58.766Z,0.41
2023-04-02T08:58:58.737Z,0.34
2023-04-02T08:59:58.720Z,0.34
2023-04-02T09:00:58.740Z,0.34
2023-04-02T09:01:58.818Z,0.34
2023-04-02T09:02:58.723Z,0.34
2023-04-02T09:03:58.690Z,0.34
2023-04-02T09:04:58.677Z,0.34
2023-04-02T09:05:58.652Z,0.34
2023-04-02T09:06:58.695Z,0.34
2023-04-02T09:07:58.641Z,0.34
2023-04-02T09:08:58.634Z,0.34
2023-04-02T09:09:58.656Z,0.34
2023-04-02T09:10:58.625Z,0.34
2023-04-02T09:11:58.616Z,0.34
2023-04-02T09:12:58.616Z,0.34
2023-04-02T09:13:58.578Z,0.42
2023-04-02T09:14:58.706Z,0.48
2023-04-02T09:15:58.554Z,0.54
2023-04-02T09:16:58.548Z,0.51
2023-04-02T09:17:59.612Z,0.56
2023-04-02T09:18:58.505Z,0.77
2023-04-02T09:19:58.489Z,0.67
2023-04-02T09:20:58.474Z,0.99
2023-04-02T09:21:58.445Z,2.00
2023-04-02T09:22:58.430Z,4.04
2023-04-02T09:23:58.410Z,5.43
2023-04-02T09:24:58.393Z,3.77
2023-04-02T09:26:04.121Z,3.05
2023-04-02T09:26:58.324Z,1.08
2023-04-02T09:27:58.241Z,1.48
2023-04-02T09:28:58.166Z,1.83
2023-04-02T09:29:57.091Z,0.89
2023-04-02T09:30:58.024Z,1.13
2023-04-02T09:31:58.053Z,0.81
2023-04-02T09:32:58.001Z,0.71
2023-04-02T09:33:57.852Z,0.81
2023-04-02T09:34:57.764Z,0.47
2023-04-02T09:35:57.882Z,0.48
2023-04-02T09:36:57.637Z,0.51
2023-04-02T09:37:57.554Z,0.48
2023-04-02T09:38:57.558Z,0.34
2023-04-02T09:39:57.507Z,0.34
2023-04-02T09:40:57.473Z,0.34
2023-04-02T09:42:05.148Z,0.34
2023-04-02T09:42:57.374Z,0.34
2023-04-02T09:43:57.513Z,0.34
2023-04-02T09:44:57.210Z,0.34
2023-04-02T09:45:57.122Z,0.34
2023-04-02T09:46:57.083Z,0.34
2023-04-02T09:47:57.033Z,0.34
2023-04-02T09:48:56.936Z,0.34
2023-04-02T09:49:56.846Z,0.34
2023-04-02T09:50:56.752Z,0.34
2023-04-02T09:51:56.678Z,0.34
2023-04-02T09:52:56.612Z,0.34
2023-04-02T09:53:56.552Z,0.34
2023-04-02T09:54:56.513Z,0.34
2023-04-02T09:55:56.411Z,0.34
2023-04-02T09:56:56.360Z,0.34
2023-04-02T09:57:56.282Z,0.34
2023-04-02T09:58:56.215Z,0.55
2023-04-02T09:59:56.143Z,0.49
2023-04-02T10:00:56.089Z,0.60
2023-04-02T10:01:56.065Z,0.58
2023-04-02T10:02:55.910Z,0.76
2023-04-02T10:03:55.841Z,0.72
2023-04-02T10:04:55.764Z,0.87
2023-04-02T10:05:55.660Z,0.70
2023-04-02T10:06:55.597Z,0.43
2023-04-02T10:07:55.551Z,0.36
2023-04-02T10:08:55.538Z,0.51
2023-04-02T10:09:55.488Z,0.53
2023-04-02T10:10:55.476Z,0.49
2023-04-02T10:11:55.448Z,0.48
2023-04-02T10:12:55.400Z,0.50
2023-04-02T10:13:55.372Z,0.65
2023-04-02T10:14:55.331Z,0.40
2023-04-02T10:15:55.286Z,0.53
2023-04-02T10:16:55.290Z,0.71
2023-04-02T10:17:55.234Z,0.48
2023-04-02T10:18:55.224Z,0.50
2023-04-02T10:19:55.191Z,0.74
2023-04-02T10:20:55.160Z,1.16
2023-04-02T10:21:55.088Z,0.87
2023-04-02T10:22:55.076Z,0.73
2023-04-02T10:23:55.106Z,0.63
2023-04-02T10:24:55.100Z,0.66
2023-04-02T10:25:55.068Z,0.52
2023-04-02T10:26:55.076Z,0.48
2023-04-02T10:27:55.063Z,0.40
2023-04-02T10:28:55.056Z,0.39
2023-04-02T10:29:55.072Z,0.66
2023-04-02T10:30:55.116Z,1.94
2023-04-02T10:31:55.118Z,2.61
2023-04-02T10:32:55.130Z,5.20
2023-04-02T10:33:55.147Z,14.24
2023-04-02T10:34:55.175Z,25.61
2023-04-02T10:35:55.246Z,28.24
2023-04-02T10:36:55.202Z,63.56
2023-04-02T10:37:55.191Z,37.01
2023-04-02T10:38:55.227Z,20.26
2023-04-02T10:39:55.253Z,21.68
2023-04-02T10:40:56.952Z,24.84
2023-04-02T10:41:55.203Z,34.03
2023-04-02T10:42:55.190Z,44.28
2023-04-02T10:43:55.906Z,37.01
2023-04-02T10:44:55.203Z,37.48
2023-04-02T10:45:55.226Z,45.73
2023-04-02T10:46:55.189Z,75.23
2023-04-02T10:47:55.230Z,143.47
2023-04-02T10:48:55.213Z,382.69
2023-04-02T10:49:55.174Z,602.81
2023-04-02T10:50:55.205Z,1000.00
2023-04-02T10:51:55.184Z,1000.00
2023-04-02T10:52:56.521Z,1000.00
2023-04-02T10:53:55.294Z,1000.00
2023-04-02T10:54:55.335Z,1000.00
2023-04-02T10:55:55.396Z,1000.00
2023-04-02T10:56:55.458Z,1000.00
2023-04-02T10:57:55.441Z,1000.00
2023-04-02T10:58:57.323Z,1000.00
2023-04-02T10:59:55.517Z,1000.00
2023-04-02T11:00:55.542Z,1000.00
2023-04-02T11:01:55.639Z,703.41
2023-04-02T11:02:55.646Z,541.86
2023-04-02T11:03:57.874Z,390.91
2023-04-02T11:04:57.198Z,391.84
2023-04-02T11:05:56.969Z,243.51
2023-04-02T11:07:07.225Z,235.25
2023-04-02T11:07:55.709Z,227.50
2023-04-02T11:08:55.747Z,208.35
2023-04-02T11:09:55.698Z,116.79
2023-04-02T11:10:55.705Z,59.21
2023-04-02T11:11:55.687Z,36.18
2023-04-02T11:12:55.687Z,31.49
2023-04-02T11:13:55.672Z,28.55
2023-04-02T11:14:55.664Z,29.08
2023-04-02T11:15:55.722Z,16.15
2023-04-02T11:16:55.672Z,17.00
2023-04-02T11:17:55.712Z,13.67
2023-04-02T11:18:55.681Z,10.90
2023-04-02T11:19:55.655Z,20.41
2023-04-02T11:20:55.667Z,24.22
2023-04-02T11:21:59.375Z,21.38
2023-04-02T11:22:55.838Z,21.48
2023-04-02T11:23:55.640Z,18.24
2023-04-02T11:24:55.662Z,11.40
2023-04-02T11:25:55.632Z,9.55
2023-04-02T11:26:55.619Z,9.12
2023-04-02T11:27:55.601Z,11.00
2023-04-02T11:28:55.593Z,18.03
2023-04-02T11:29:55.590Z,16.45
2023-04-02T11:30:55.594Z,15.85
2023-04-02T11:31:55.615Z,7.15
2023-04-02T11:32:55.592Z,9.54
2023-04-02T11:33:55.561Z,10.66
2023-04-02T11:35:54.643Z,8.13
2023-04-02T11:36:55.541Z,6.09
2023-04-02T11:37:55.547Z,4.81
2023-04-02T11:39:04.428Z,3.69
2023-04-02T11:39:55.507Z,4.52
2023-04-02T11:40:55.530Z,5.34
2023-04-02T11:41:55.479Z,7.64
2023-04-02T11:42:55.465Z,10.43
2023-04-02T11:43:55.485Z,10.31
2023-04-02T11:44:55.460Z,8.03
2023-04-02T11:45:55.815Z,7.13
2023-04-02T11:46:55.548Z,4.11
2023-04-02T11:47:55.532Z,3.29
2023-04-02T11:48:55.472Z,3.34
2023-04-02T11:49:55.491Z,3.56
2023-04-02T11:50:55.464Z,4.01
2023-04-02T11:52:09.104Z,1.84
2023-04-02T11:52:55.452Z,1.84
2023-04-02T11:53:55.426Z,1.94
2023-04-02T11:54:55.432Z,2.10
2023-04-02T11:55:55.426Z,2.33
2023-04-02T11:56:55.467Z,2.66
2023-04-02T11:57:55.392Z,3.14
2023-04-02T11:58:55.382Z,1.93
2023-04-02T11:59:55.371Z,1.05
2023-04-02T12:00:55.359Z,0.65
2023-04-02T12:01:55.404Z,0.64
2023-04-02T12:02:55.793Z,0.82
2023-04-02T12:03:55.345Z,0.58
2023-04-02T12:04:55.366Z,0.56
2023-04-02T12:05:55.317Z,0.36
2023-04-02T12:06:55.301Z,0.40
2023-04-02T12:07:55.278Z,0.79
2023-04-02T12:08:58.091Z,0.65
2023-04-02T12:09:55.237Z,0.49
2023-04-02T12:10:55.213Z,0.62
2023-04-02T12:11:55.216Z,0.61
2023-04-02T12:12:55.201Z,0.45
2023-04-02T12:13:55.152Z,0.34
2023-04-02T12:14:55.130Z,0.34
2023-04-02T12:15:55.100Z,0.34
2023-04-02T12:16:55.120Z,0.58
2023-04-02T12:17:55.108Z,0.70
2023-04-02T12:18:55.048Z,0.34
2023-04-02T12:19:55.012Z,0.34
2023-04-02T12:20:55.012Z,0.50
2023-04-02T12:21:54.992Z,0.61
2023-04-02T12:22:54.970Z,0.93
2023-04-02T12:23:54.932Z,0.38
2023-04-02T12:24:54.913Z,0.34
2023-04-02T12:25:54.893Z,0.34
2023-04-02T12:26:54.856Z,0.34
2023-04-02T12:27:54.844Z,0.34
2023-04-02T12:28:54.853Z,0.72
2023-04-02T12:29:54.832Z,0.54
2023-04-02T12:30:54.870Z,0.55
2023-04-02T12:31:54.907Z,0.34
2023-04-02T12:32:54.851Z,0.34
2023-04-02T12:33:54.875Z,0.34
2023-04-02T12:34:54.835Z,0.34
2023-04-02T12:35:54.881Z,0.48
2023-04-02T12:36:54.872Z,0.63
2023-04-02T12:37:54.908Z,1.22
2023-04-02T12:38:54.919Z,2.16
2023-04-02T12:39:54.970Z,2.20
2023-04-02T12:40:54.940Z,0.78
2023-04-02T12:41:54.953Z,0.66
2023-04-02T12:42:54.965Z,0.98
2023-04-02T12:43:54.983Z,0.45
2023-04-02T12:44:55.034Z,0.34
2023-04-02T12:45:55.085Z,0.46
2023-04-02T12:46:54.996Z,0.58
2023-04-02T12:47:55.033Z,0.49
2023-04-02T12:48:55.044Z,0.83
2023-04-02T12:49:55.051Z,1.12
2023-04-02T12:50:55.076Z,1.32
2023-04-02T12:51:55.072Z,1.67
2023-04-02T12:52:55.166Z,0.94
2023-04-02T12:53:55.089Z,0.94
2023-04-02T12:54:55.093Z,0.96
2023-04-02T12:55:55.148Z,0.98
2023-04-02T12:56:57.711Z,1.20
2023-04-02T12:57:55.123Z,0.97
2023-04-02T12:58:55.107Z,0.41
2023-04-02T12:59:55.085Z,0.44
2023-04-02T13:00:55.100Z,0.40
2023-04-02T13:01:55.074Z,0.79
2023-04-02T13:02:55.110Z,0.71
2023-04-02T13:03:55.124Z,0.60
2023-04-02T13:04:55.500Z,0.52
2023-04-02T13:05:55.056Z,0.50
2023-04-02T13:06:55.044Z,0.53
2023-04-02T13:07:55.014Z,1.12
2023-04-02T13:08:55.005Z,1.28
2023-04-02T13:09:54.990Z,1.08